sensor_id;sensor_type;location;lat;lon;timestamp;pressure;altitude;pressure_sealevel;temperature
68127;BMP180;54931;52.098;21.006;2023-03-01T00:01:44;101533.00;;;-4.50
68127;BMP180;54931;52.098;21.006;2023-03-01T00:04:12;101541.00;;;-4.50
68127;BMP180;54931;52.098;21.006;2023-03-01T00:06:43;101538.60;;;-4.54
68127;BMP180;54931;52.098;21.006;2023-03-01T00:09:15;101541.40;;;-4.50
68127;BMP180;54931;52.098;21.006;2023-03-01T00:11:44;101534.00;;;-4.50
68127;BMP180;54931;52.098;21.006;2023-03-01T00:14:13;101525.60;;;-4.60
68127;BMP180;54931;52.098;21.006;2023-03-01T00:16:45;101525.80;;;-4.60
68127;BMP180;54931;52.098;21.006;2023-03-01T00:19:17;101530.60;;;-4.60
68127;BMP180;54931;52.098;21.006;2023-03-01T00:21:46;101529.80;;;-4.60
68127;BMP180;54931;52.098;21.006;2023-03-01T00:24:15;101526.40;;;-4.60
68127;BMP180;54931;52.098;21.006;2023-03-01T00:26:43;101526.60;;;-4.60
68127;BMP180;54931;52.098;21.006;2023-03-01T00:29:12;101528.20;;;-4.64
68127;BMP180;54931;52.098;21.006;2023-03-01T00:31:40;101526.80;;;-4.60
68127;BMP180;54931;52.098;21.006;2023-03-01T00:34:09;101526.80;;;-4.60
68127;BMP180;54931;52.098;21.006;2023-03-01T00:36:37;101523.80;;;-4.50
68127;BMP180;54931;52.098;21.006;2023-03-01T00:39:12;101520.80;;;-4.50
68127;BMP180;54931;52.098;21.006;2023-03-01T00:41:42;101516.40;;;-4.40
68127;BMP180;54931;52.098;21.006;2023-03-01T00:44:10;101513.20;;;-4.36
68127;BMP180;54931;52.098;21.006;2023-03-01T00:46:39;101504.20;;;-4.30
68127;BMP180;54931;52.098;21.006;2023-03-01T00:49:07;101495.60;;;-4.40
68127;BMP180;54931;52.098;21.006;2023-03-01T00:51:35;101491.00;;;-4.40
68127;BMP180;54931;52.098;21.006;2023-03-01T00:54:03;101497.00;;;-4.40
68127;BMP180;54931;52.098;21.006;2023-03-01T00:56:31;101492.40;;;-4.40
68127;BMP180;54931;52.098;21.006;2023-03-01T00:59:00;101487.60;;;-4.30
68127;BMP180;54931;52.098;21.006;2023-03-01T01:01:30;101487.80;;;-4.30
68127;BMP180;54931;52.098;21.006;2023-03-01T01:04:11;101487.20;;;-4.24
68127;BMP180;54931;52.098;21.006;2023-03-01T01:06:46;101487.60;;;-4.20
68127;BMP180;54931;52.098;21.006;2023-03-01T01:09:17;101488.40;;;-4.20
68127;BMP180;54931;52.098;21.006;2023-03-01T01:11:50;101486.40;;;-4.18
68127;BMP180;54931;52.098;21.006;2023-03-01T01:14:19;101489.40;;;-4.20
68127;BMP180;54931;52.098;21.006;2023-03-01T01:16:48;101488.20;;;-4.20
68127;BMP180;54931;52.098;21.006;2023-03-01T01:19:16;101485.60;;;-4.20
68127;BMP180;54931;52.098;21.006;2023-03-01T01:21:44;101485.20;;;-4.20
68127;BMP180;54931;52.098;21.006;2023-03-01T01:24:12;101483.80;;;-4.28
68127;BMP180;54931;52.098;21.006;2023-03-01T01:26:42;101480.00;;;-4.30
68127;BMP180;54931;52.098;21.006;2023-03-01T01:29:11;101481.40;;;-4.30
68127;BMP180;54931;52.098;21.006;2023-03-01T01:31:42;101474.40;;;-4.30
68127;BMP180;54931;52.098;21.006;2023-03-01T01:34:18;101470.60;;;-4.40
68127;BMP180;54931;52.098;21.006;2023-03-01T01:36:51;101472.00;;;-4.40
68127;BMP180;54931;52.098;21.006;2023-03-01T01:39:22;101463.20;;;-4.50
68127;BMP180;54931;52.098;21.006;2023-03-01T01:41:49;101458.20;;;-4.60
68127;BMP180;54931;52.098;21.006;2023-03-01T01:44:25;101454.20;;;-4.68
68127;BMP180;54931;52.098;21.006;2023-03-01T01:47:32;101460.20;;;-4.70
68127;BMP180;54931;52.098;21.006;2023-03-01T01:50:01;101458.60;;;-4.80
68127;BMP180;54931;52.098;21.006;2023-03-01T01:52:37;101458.00;;;-4.80
68127;BMP180;54931;52.098;21.006;2023-03-01T01:55:11;101450.60;;;-4.88
68127;BMP180;54931;52.098;21.006;2023-03-01T01:57:50;101450.20;;;-4.90
68127;BMP180;54931;52.098;21.006;2023-03-01T02:00:26;101440.20;;;-4.94
68127;BMP180;54931;52.098;21.006;2023-03-01T02:03:04;101429.60;;;-5.00
68127;BMP180;54931;52.098;21.006;2023-03-01T02:08:17;101428.40;;;-5.04
68127;BMP180;54931;52.098;21.006;2023-03-01T02:10:48;101439.20;;;-5.00
68127;BMP180;54931;52.098;21.006;2023-03-01T02:13:17;101441.60;;;-5.00
68127;BMP180;54931;52.098;21.006;2023-03-01T02:15:46;101438.40;;;-5.00
68127;BMP180;54931;52.098;21.006;2023-03-01T02:18:17;101440.00;;;-5.00
68127;BMP180;54931;52.098;21.006;2023-03-01T02:21:00;101448.20;;;-4.90
68127;BMP180;54931;52.098;21.006;2023-03-01T02:23:31;101443.00;;;-4.90
68127;BMP180;54931;52.098;21.006;2023-03-01T02:26:21;101441.80;;;-4.90
68127;BMP180;54931;52.098;21.006;2023-03-01T02:28:52;101441.80;;;-4.88
68127;BMP180;54931;52.098;21.006;2023-03-01T02:31:21;101448.20;;;-4.80
68127;BMP180;54931;52.098;21.006;2023-03-01T02:34:20;101442.40;;;-4.80
68127;BMP180;54931;52.098;21.006;2023-03-01T02:36:56;101436.00;;;-4.80
68127;BMP180;54931;52.098;21.006;2023-03-01T02:39:39;101436.40;;;-4.70
68127;BMP180;54931;52.098;21.006;2023-03-01T02:42:22;101441.20;;;-4.70
68127;BMP180;54931;52.098;21.006;2023-03-01T02:44:50;101437.00;;;-4.70
68127;BMP180;54931;52.098;21.006;2023-03-01T02:47:19;101431.60;;;-4.70
68127;BMP180;54931;52.098;21.006;2023-03-01T02:49:47;101421.80;;;-4.70
68127;BMP180;54931;52.098;21.006;2023-03-01T02:52:47;101422.60;;;-4.60
68127;BMP180;54931;52.098;21.006;2023-03-01T02:55:17;101416.60;;;-4.60
68127;BMP180;54931;52.098;21.006;2023-03-01T02:57:48;101409.80;;;-4.52
68127;BMP180;54931;52.098;21.006;2023-03-01T03:00:24;101412.20;;;-4.50
68127;BMP180;54931;52.098;21.006;2023-03-01T03:02:54;101413.80;;;-4.48
68127;BMP180;54931;52.098;21.006;2023-03-01T03:05:29;101417.00;;;-4.40
68127;BMP180;54931;52.098;21.006;2023-03-01T03:08:01;101420.40;;;-4.40
68127;BMP180;54931;52.098;21.006;2023-03-01T03:10:33;101419.60;;;-4.40
68127;BMP180;54931;52.098;21.006;2023-03-01T03:13:11;101414.40;;;-4.40
68127;BMP180;54931;52.098;21.006;2023-03-01T03:15:41;101414.80;;;-4.40
68127;BMP180;54931;52.098;21.006;2023-03-01T03:18:14;101399.20;;;-4.40
68127;BMP180;54931;52.098;21.006;2023-03-01T03:20:45;101401.00;;;-4.40
68127;BMP180;54931;52.098;21.006;2023-03-01T03:23:13;101391.20;;;-4.48
68127;BMP180;54931;52.098;21.006;2023-03-01T03:25:41;101393.00;;;-4.50
68127;BMP180;54931;52.098;21.006;2023-03-01T03:28:09;101400.00;;;-4.50
68127;BMP180;54931;52.098;21.006;2023-03-01T03:30:40;101396.60;;;-4.50
68127;BMP180;54931;52.098;21.006;2023-03-01T03:33:11;101396.40;;;-4.50
68127;BMP180;54931;52.098;21.006;2023-03-01T03:35:48;101392.80;;;-4.50
68127;BMP180;54931;52.098;21.006;2023-03-01T03:38:19;101379.20;;;-4.50
68127;BMP180;54931;52.098;21.006;2023-03-01T03:41:05;101377.80;;;-4.52
68127;BMP180;54931;52.098;21.006;2023-03-01T03:43:37;101371.00;;;-4.60
68127;BMP180;54931;52.098;21.006;2023-03-01T03:46:06;101365.20;;;-4.62
68127;BMP180;54931;52.098;21.006;2023-03-01T03:48:39;101369.80;;;-4.66
68127;BMP180;54931;52.098;21.006;2023-03-01T03:51:11;101367.00;;;-4.70
68127;BMP180;54931;52.098;21.006;2023-03-01T03:53:39;101367.00;;;-4.70
68127;BMP180;54931;52.098;21.006;2023-03-01T03:56:08;101368.40;;;-4.70
68127;BMP180;54931;52.098;21.006;2023-03-01T03:58:36;101369.20;;;-4.72
68127;BMP180;54931;52.098;21.006;2023-03-01T04:01:04;101368.20;;;-4.80
68127;BMP180;54931;52.098;21.006;2023-03-01T04:03:33;101370.40;;;-4.70
68127;BMP180;54931;52.098;21.006;2023-03-01T04:06:03;101368.20;;;-4.70
68127;BMP180;54931;52.098;21.006;2023-03-01T04:08:33;101364.00;;;-4.60
68127;BMP180;54931;52.098;21.006;2023-03-01T04:11:03;101352.20;;;-4.60
68127;BMP180;54931;52.098;21.006;2023-03-01T04:13:55;101353.20;;;-4.60
68127;BMP180;54931;52.098;21.006;2023-03-01T04:16:24;101353.60;;;-4.68
68127;BMP180;54931;52.098;21.006;2023-03-01T04:18:52;101354.80;;;-4.66
68127;BMP180;54931;52.098;21.006;2023-03-01T04:21:21;101359.80;;;-4.64
68127;BMP180;54931;52.098;21.006;2023-03-01T04:23:49;101353.00;;;-4.62
68127;BMP180;54931;52.098;21.006;2023-03-01T04:26:20;101354.80;;;-4.62
68127;BMP180;54931;52.098;21.006;2023-03-01T04:28:47;101347.80;;;-4.66
68127;BMP180;54931;52.098;21.006;2023-03-01T04:31:19;101363.60;;;-4.70
68127;BMP180;54931;52.098;21.006;2023-03-01T04:33:52;101364.60;;;-4.70
68127;BMP180;54931;52.098;21.006;2023-03-01T04:36:27;101365.80;;;-4.70
68127;BMP180;54931;52.098;21.006;2023-03-01T04:38:56;101366.80;;;-4.70
68127;BMP180;54931;52.098;21.006;2023-03-01T04:41:25;101358.40;;;-4.70
68127;BMP180;54931;52.098;21.006;2023-03-01T04:43:54;101358.20;;;-4.70
68127;BMP180;54931;52.098;21.006;2023-03-01T04:46:22;101351.80;;;-4.80
68127;BMP180;54931;52.098;21.006;2023-03-01T04:48:50;101348.60;;;-4.80
68127;BMP180;54931;52.098;21.006;2023-03-01T04:51:18;101353.60;;;-4.74
68127;BMP180;54931;52.098;21.006;2023-03-01T04:53:47;101348.00;;;-4.70
68127;BMP180;54931;52.098;21.006;2023-03-01T04:56:15;101344.20;;;-4.70
68127;BMP180;54931;52.098;21.006;2023-03-01T04:58:46;101339.40;;;-4.70
68127;BMP180;54931;52.098;21.006;2023-03-01T05:01:19;101330.20;;;-4.68
68127;BMP180;54931;52.098;21.006;2023-03-01T05:03:51;101325.80;;;-4.66
68127;BMP180;54931;52.098;21.006;2023-03-01T05:06:20;101327.00;;;-4.70
68127;BMP180;54931;52.098;21.006;2023-03-01T05:08:48;101328.40;;;-4.70
68127;BMP180;54931;52.098;21.006;2023-03-01T05:11:16;101326.80;;;-4.62
68127;BMP180;54931;52.098;21.006;2023-03-01T05:13:44;101324.40;;;-4.60
68127;BMP180;54931;52.098;21.006;2023-03-01T05:16:12;101324.60;;;-4.50
68127;BMP180;54931;52.098;21.006;2023-03-01T05:18:41;101320.40;;;-4.40
68127;BMP180;54931;52.098;21.006;2023-03-01T05:21:13;101318.60;;;-4.30
68127;BMP180;54931;52.098;21.006;2023-03-01T05:23:43;101325.20;;;-4.20
68127;BMP180;54931;52.098;21.006;2023-03-01T05:26:12;101327.00;;;-4.20
68127;BMP180;54931;52.098;21.006;2023-03-01T05:28:40;101334.60;;;-4.08
68127;BMP180;54931;52.098;21.006;2023-03-01T05:31:09;101336.00;;;-3.98
68127;BMP180;54931;52.098;21.006;2023-03-01T05:33:41;101333.00;;;-3.90
68127;BMP180;54931;52.098;21.006;2023-03-01T05:36:09;101344.60;;;-3.90
68127;BMP180;54931;52.098;21.006;2023-03-01T05:38:37;101348.80;;;-3.88
68127;BMP180;54931;52.098;21.006;2023-03-01T05:41:14;101351.20;;;-3.80
68127;BMP180;54931;52.098;21.006;2023-03-01T05:43:44;101353.40;;;-3.80
68127;BMP180;54931;52.098;21.006;2023-03-01T05:46:12;101355.00;;;-3.70
68127;BMP180;54931;52.098;21.006;2023-03-01T05:48:42;101361.20;;;-3.64
68127;BMP180;54931;52.098;21.006;2023-03-01T05:51:11;101367.20;;;-3.60
68127;BMP180;54931;52.098;21.006;2023-03-01T05:53:39;101368.20;;;-3.52
68127;BMP180;54931;52.098;21.006;2023-03-01T05:56:07;101372.20;;;-3.50
68127;BMP180;54931;52.098;21.006;2023-03-01T05:58:36;101372.20;;;-3.50
68127;BMP180;54931;52.098;21.006;2023-03-01T06:01:11;101370.60;;;-3.40
68127;BMP180;54931;52.098;21.006;2023-03-01T06:03:39;101365.80;;;-3.34
68127;BMP180;54931;52.098;21.006;2023-03-01T06:06:06;101369.40;;;-3.30
68127;BMP180;54931;52.098;21.006;2023-03-01T06:08:35;101371.40;;;-3.20
68127;BMP180;54931;52.098;21.006;2023-03-01T06:11:03;101373.20;;;-3.18
68127;BMP180;54931;52.098;21.006;2023-03-01T06:13:32;101373.40;;;-3.10
68127;BMP180;54931;52.098;21.006;2023-03-01T06:16:00;101371.80;;;-3.00
68127;BMP180;54931;52.098;21.006;2023-03-01T06:18:28;101370.60;;;-2.94
68127;BMP180;54931;52.098;21.006;2023-03-01T06:20:56;101375.40;;;-2.86
68127;BMP180;54931;52.098;21.006;2023-03-01T06:23:25;101380.40;;;-2.80
68127;BMP180;54931;52.098;21.006;2023-03-01T06:25:53;101381.80;;;-2.70
68127;BMP180;54931;52.098;21.006;2023-03-01T06:28:21;101374.00;;;-2.60
68127;BMP180;54931;52.098;21.006;2023-03-01T06:30:52;101380.20;;;-2.50
68127;BMP180;54931;52.098;21.006;2023-03-01T06:33:20;101382.60;;;-2.40
68127;BMP180;54931;52.098;21.006;2023-03-01T06:35:49;101379.40;;;-2.24
68127;BMP180;54931;52.098;21.006;2023-03-01T06:38:17;101373.80;;;-2.10
68127;BMP180;54931;52.098;21.006;2023-03-01T06:40:53;101374.60;;;-1.90
68127;BMP180;54931;52.098;21.006;2023-03-01T06:43:24;101369.60;;;-1.60
68127;BMP180;54931;52.098;21.006;2023-03-01T06:45:52;101375.00;;;-1.30
68127;BMP180;54931;52.098;21.006;2023-03-01T06:48:20;101374.40;;;-1.10
68127;BMP180;54931;52.098;21.006;2023-03-01T06:50:48;101379.00;;;-0.86
68127;BMP180;54931;52.098;21.006;2023-03-01T06:53:16;101373.40;;;-0.62
68127;BMP180;54931;52.098;21.006;2023-03-01T06:55:43;101371.20;;;-0.50
68127;BMP180;54931;52.098;21.006;2023-03-01T06:58:11;101370.60;;;-0.40
68127;BMP180;54931;52.098;21.006;2023-03-01T07:00:39;101380.00;;;-0.30
68127;BMP180;54931;52.098;21.006;2023-03-01T07:03:08;101377.20;;;-0.10
68127;BMP180;54931;52.098;21.006;2023-03-01T07:05:36;101380.00;;;0.10
68127;BMP180;54931;52.098;21.006;2023-03-01T07:08:04;101374.80;;;0.20
68127;BMP180;54931;52.098;21.006;2023-03-01T07:10:32;101376.60;;;0.30
68127;BMP180;54931;52.098;21.006;2023-03-01T07:13:00;101372.20;;;0.38
68127;BMP180;54931;52.098;21.006;2023-03-01T07:15:28;101374.80;;;0.50
68127;BMP180;54931;52.098;21.006;2023-03-01T07:17:57;101378.80;;;0.60
68127;BMP180;54931;52.098;21.006;2023-03-01T07:20:24;101377.00;;;0.80
68127;BMP180;54931;52.098;21.006;2023-03-01T07:22:54;101378.80;;;0.88
68127;BMP180;54931;52.098;21.006;2023-03-01T07:25:22;101382.00;;;1.00
68127;BMP180;54931;52.098;21.006;2023-03-01T07:27:51;101376.00;;;1.10
68127;BMP180;54931;52.098;21.006;2023-03-01T07:30:21;101379.40;;;1.20
68127;BMP180;54931;52.098;21.006;2023-03-01T07:32:49;101377.40;;;1.26
68127;BMP180;54931;52.098;21.006;2023-03-01T07:35:16;101381.20;;;1.40
68127;BMP180;54931;52.098;21.006;2023-03-01T07:37:44;101379.00;;;1.58
68127;BMP180;54931;52.098;21.006;2023-03-01T07:40:13;101375.00;;;1.78
68127;BMP180;54931;52.098;21.006;2023-03-01T07:42:41;101370.40;;;2.02
68127;BMP180;54931;52.098;21.006;2023-03-01T07:45:10;101364.80;;;2.30
68127;BMP180;54931;52.098;21.006;2023-03-01T07:47:39;101369.80;;;2.20
68127;BMP180;54931;52.098;21.006;2023-03-01T07:50:08;101360.60;;;2.30
68127;BMP180;54931;52.098;21.006;2023-03-01T07:52:36;101361.80;;;2.36
68127;BMP180;54931;52.098;21.006;2023-03-01T07:55:05;101359.40;;;2.40
68127;BMP180;54931;52.098;21.006;2023-03-01T07:57:33;101362.20;;;2.74
68127;BMP180;54931;52.098;21.006;2023-03-01T08:00:01;101365.80;;;2.90
68127;BMP180;54931;52.098;21.006;2023-03-01T08:02:31;101368.40;;;3.04
68127;BMP180;54931;52.098;21.006;2023-03-01T08:04:59;101360.20;;;3.20
68127;BMP180;54931;52.098;21.006;2023-03-01T08:07:27;101359.40;;;3.30
68127;BMP180;54931;52.098;21.006;2023-03-01T08:09:55;101366.40;;;3.40
68127;BMP180;54931;52.098;21.006;2023-03-01T08:12:22;101366.00;;;3.50
68127;BMP180;54931;52.098;21.006;2023-03-01T08:14:50;101373.80;;;3.50
68127;BMP180;54931;52.098;21.006;2023-03-01T08:17:18;101372.40;;;3.64
68127;BMP180;54931;52.098;21.006;2023-03-01T08:19:47;101375.60;;;3.90
68127;BMP180;54931;52.098;21.006;2023-03-01T08:22:14;101374.40;;;4.08
68127;BMP180;54931;52.098;21.006;2023-03-01T08:24:42;101374.60;;;4.30
68127;BMP180;54931;52.098;21.006;2023-03-01T08:27:10;101379.80;;;4.72
68127;BMP180;54931;52.098;21.006;2023-03-01T08:29:39;101381.80;;;4.90
68127;BMP180;54931;52.098;21.006;2023-03-01T08:32:07;101386.60;;;4.90
68127;BMP180;54931;52.098;21.006;2023-03-01T08:34:35;101387.80;;;5.08
68127;BMP180;54931;52.098;21.006;2023-03-01T08:37:03;101381.40;;;5.18
68127;BMP180;54931;52.098;21.006;2023-03-01T08:39:31;101376.40;;;5.02
68127;BMP180;54931;52.098;21.006;2023-03-01T08:41:59;101380.60;;;5.08
68127;BMP180;54931;52.098;21.006;2023-03-01T08:44:27;101381.80;;;5.30
68127;BMP180;54931;52.098;21.006;2023-03-01T08:46:55;101389.60;;;5.56
68127;BMP180;54931;52.098;21.006;2023-03-01T08:49:23;101380.60;;;5.80
68127;BMP180;54931;52.098;21.006;2023-03-01T08:51:51;101381.40;;;5.90
68127;BMP180;54931;52.098;21.006;2023-03-01T08:54:21;101386.20;;;5.90
68127;BMP180;54931;52.098;21.006;2023-03-01T08:56:49;101386.00;;;6.00
68127;BMP180;54931;52.098;21.006;2023-03-01T08:59:17;101387.00;;;5.94
68127;BMP180;54931;52.098;21.006;2023-03-01T09:01:45;101384.80;;;6.10
68127;BMP180;54931;52.098;21.006;2023-03-01T09:04:14;101384.60;;;6.00
68127;BMP180;54931;52.098;21.006;2023-03-01T09:06:43;101390.20;;;6.00
68127;BMP180;54931;52.098;21.006;2023-03-01T09:09:15;101393.60;;;6.10
68127;BMP180;54931;52.098;21.006;2023-03-01T09:11:46;101391.80;;;6.10
68127;BMP180;54931;52.098;21.006;2023-03-01T09:14:14;101395.40;;;6.30
68127;BMP180;54931;52.098;21.006;2023-03-01T09:16:42;101385.60;;;6.30
68127;BMP180;54931;52.098;21.006;2023-03-01T09:19:10;101392.20;;;6.30
68127;BMP180;54931;52.098;21.006;2023-03-01T09:21:39;101393.00;;;6.20
68127;BMP180;54931;52.098;21.006;2023-03-01T09:24:14;101395.80;;;6.30
68127;BMP180;54931;52.098;21.006;2023-03-01T09:26:43;101393.00;;;6.30
68127;BMP180;54931;52.098;21.006;2023-03-01T09:29:14;101394.20;;;6.20
68127;BMP180;54931;52.098;21.006;2023-03-01T09:31:42;101389.40;;;6.20
68127;BMP180;54931;52.098;21.006;2023-03-01T09:34:10;101388.40;;;6.30
68127;BMP180;54931;52.098;21.006;2023-03-01T09:36:38;101390.20;;;6.40
68127;BMP180;54931;52.098;21.006;2023-03-01T09:39:06;101389.00;;;6.60
68127;BMP180;54931;52.098;21.006;2023-03-01T09:42:01;101381.20;;;6.50
68127;BMP180;54931;52.098;21.006;2023-03-01T09:44:59;101377.60;;;6.36
68127;BMP180;54931;52.098;21.006;2023-03-01T09:47:35;101377.40;;;6.20
68127;BMP180;54931;52.098;21.006;2023-03-01T09:50:18;101377.80;;;6.00
68127;BMP180;54931;52.098;21.006;2023-03-01T09:53:09;101378.00;;;6.10
68127;BMP180;54931;52.098;21.006;2023-03-01T09:58:31;101366.60;;;6.16
68127;BMP180;54931;52.098;21.006;2023-03-01T10:01:34;101356.80;;;6.20
68127;BMP180;54931;52.098;21.006;2023-03-01T10:04:47;101360.40;;;6.06
68127;BMP180;54931;52.098;21.006;2023-03-01T10:07:32;101367.80;;;6.20
68127;BMP180;54931;52.098;21.006;2023-03-01T10:10:13;101359.00;;;6.34
68127;BMP180;54931;52.098;21.006;2023-03-01T10:12:45;101360.80;;;6.50
68127;BMP180;54931;52.098;21.006;2023-03-01T10:15:41;101354.40;;;6.40
68127;BMP180;54931;52.098;21.006;2023-03-01T10:18:22;101344.00;;;6.30
68127;BMP180;54931;52.098;21.006;2023-03-01T10:21:28;101346.80;;;6.10
68127;BMP180;54931;52.098;21.006;2023-03-01T10:24:14;101337.20;;;6.30
68127;BMP180;54931;52.098;21.006;2023-03-01T10:26:58;101334.80;;;6.50
68127;BMP180;54931;52.098;21.006;2023-03-01T10:29:39;101330.40;;;6.50
68127;BMP180;54931;52.098;21.006;2023-03-01T10:32:10;101326.40;;;6.60
68127;BMP180;54931;52.098;21.006;2023-03-01T10:34:38;101318.80;;;6.70
68127;BMP180;54931;52.098;21.006;2023-03-01T10:37:17;101317.00;;;6.70
68127;BMP180;54931;52.098;21.006;2023-03-01T10:42:48;101311.20;;;6.80
68127;BMP180;54931;52.098;21.006;2023-03-01T10:48:18;101313.60;;;6.90
68127;BMP180;54931;52.098;21.006;2023-03-01T10:51:05;101318.20;;;6.90
68127;BMP180;54931;52.098;21.006;2023-03-01T10:53:48;101312.20;;;6.90
68127;BMP180;54931;52.098;21.006;2023-03-01T10:56:16;101314.20;;;6.98
68127;BMP180;54931;52.098;21.006;2023-03-01T10:59:27;101315.40;;;7.00
68127;BMP180;54931;52.098;21.006;2023-03-01T11:04:36;101308.20;;;7.00
68127;BMP180;54931;52.098;21.006;2023-03-01T11:07:06;101303.00;;;6.90
68127;BMP180;54931;52.098;21.006;2023-03-01T11:09:34;101304.20;;;6.90
68127;BMP180;54931;52.098;21.006;2023-03-01T11:12:13;101309.00;;;7.08
68127;BMP180;54931;52.098;21.006;2023-03-01T11:14:52;101308.40;;;7.18
68127;BMP180;54931;52.098;21.006;2023-03-01T11:17:31;101307.80;;;7.20
68127;BMP180;54931;52.098;21.006;2023-03-01T11:20:24;101305.00;;;7.28
68127;BMP180;54931;52.098;21.006;2023-03-01T11:22:56;101299.40;;;7.40
68127;BMP180;54931;52.098;21.006;2023-03-01T11:26:00;101302.80;;;7.42
68127;BMP180;54931;52.098;21.006;2023-03-01T11:28:29;101302.80;;;7.56
68127;BMP180;54931;52.098;21.006;2023-03-01T11:31:15;101296.00;;;7.50
68127;BMP180;54931;52.098;21.006;2023-03-01T11:49:44;101285.20;;;7.60
68127;BMP180;54931;52.098;21.006;2023-03-01T11:52:16;101283.60;;;7.40
68127;BMP180;54931;52.098;21.006;2023-03-01T11:55:07;101283.80;;;7.18
68127;BMP180;54931;52.098;21.006;2023-03-01T12:01:44;101294.00;;;7.00
68127;BMP180;54931;52.098;21.006;2023-03-01T12:08:02;101288.40;;;7.10
68127;BMP180;54931;52.098;21.006;2023-03-01T12:16:58;101285.00;;;7.20
68127;BMP180;54931;52.098;21.006;2023-03-01T12:25:05;101295.60;;;7.10
68127;BMP180;54931;52.098;21.006;2023-03-01T12:31:33;101291.60;;;7.30
68127;BMP180;54931;52.098;21.006;2023-03-01T12:42:35;101275.40;;;7.70
68127;BMP180;54931;52.098;21.006;2023-03-01T12:48:04;101276.60;;;7.60
68127;BMP180;54931;52.098;21.006;2023-03-01T12:50:46;101274.20;;;7.30
68127;BMP180;54931;52.098;21.006;2023-03-01T12:53:45;101273.80;;;7.20
68127;BMP180;54931;52.098;21.006;2023-03-01T12:56:21;101268.60;;;7.30
68127;BMP180;54931;52.098;21.006;2023-03-01T12:59:23;101258.60;;;7.30
68127;BMP180;54931;52.098;21.006;2023-03-01T13:02:33;101257.80;;;7.40
68127;BMP180;54931;52.098;21.006;2023-03-01T13:05:42;101255.60;;;7.80
68127;BMP180;54931;52.098;21.006;2023-03-01T13:08:26;101257.00;;;7.90
68127;BMP180;54931;52.098;21.006;2023-03-01T13:11:03;101253.80;;;7.80
68127;BMP180;54931;52.098;21.006;2023-03-01T13:13:32;101255.80;;;7.80
68127;BMP180;54931;52.098;21.006;2023-03-01T13:19:21;101251.00;;;7.70
68127;BMP180;54931;52.098;21.006;2023-03-01T13:21:52;101255.00;;;7.70
68127;BMP180;54931;52.098;21.006;2023-03-01T13:24:42;101250.80;;;7.80
68127;BMP180;54931;52.098;21.006;2023-03-01T13:27:23;101241.00;;;7.80
68127;BMP180;54931;52.098;21.006;2023-03-01T13:29:59;101245.60;;;7.70
68127;BMP180;54931;52.098;21.006;2023-03-01T13:32:36;101240.80;;;7.80
68127;BMP180;54931;52.098;21.006;2023-03-01T13:37:38;101241.40;;;7.70
68127;BMP180;54931;52.098;21.006;2023-03-01T13:42:48;101229.80;;;7.76
68127;BMP180;54931;52.098;21.006;2023-03-01T13:48:24;101222.40;;;8.02
68127;BMP180;54931;52.098;21.006;2023-03-01T13:51:11;101218.60;;;8.30
68127;BMP180;54931;52.098;21.006;2023-03-01T13:53:47;101217.60;;;8.20
68127;BMP180;54931;52.098;21.006;2023-03-01T13:58:59;101213.20;;;8.38
68127;BMP180;54931;52.098;21.006;2023-03-01T14:01:33;101213.60;;;8.30
68127;BMP180;54931;52.098;21.006;2023-03-01T14:04:28;101215.80;;;8.40
68127;BMP180;54931;52.098;21.006;2023-03-01T14:07:18;101216.00;;;8.50
68127;BMP180;54931;52.098;21.006;2023-03-01T14:09:54;101209.60;;;8.60
68127;BMP180;54931;52.098;21.006;2023-03-01T14:18:29;101210.00;;;8.80
68127;BMP180;54931;52.098;21.006;2023-03-01T14:21:01;101210.80;;;9.14
68127;BMP180;54931;52.098;21.006;2023-03-01T14:23:34;101206.00;;;8.90
68127;BMP180;54931;52.098;21.006;2023-03-01T14:26:03;101205.40;;;8.80
68127;BMP180;54931;52.098;21.006;2023-03-01T14:28:32;101211.00;;;8.56
68127;BMP180;54931;52.098;21.006;2023-03-01T14:31:02;101204.60;;;8.26
68127;BMP180;54931;52.098;21.006;2023-03-01T14:33:34;101205.20;;;8.30
68127;BMP180;54931;52.098;21.006;2023-03-01T14:36:12;101193.40;;;8.36
68127;BMP180;54931;52.098;21.006;2023-03-01T14:38:44;101192.00;;;8.30
68127;BMP180;54931;52.098;21.006;2023-03-01T14:41:17;101193.40;;;8.12
68127;BMP180;54931;52.098;21.006;2023-03-01T14:46:38;101197.80;;;7.52
68127;BMP180;54931;52.098;21.006;2023-03-01T14:49:20;101189.20;;;7.24
68127;BMP180;54931;52.098;21.006;2023-03-01T14:51:55;101190.40;;;7.00
68127;BMP180;54931;52.098;21.006;2023-03-01T14:54:45;101186.40;;;6.90
68127;BMP180;54931;52.098;21.006;2023-03-01T14:57:20;101188.20;;;6.70
68127;BMP180;54931;52.098;21.006;2023-03-01T15:00:02;101185.40;;;6.60
68127;BMP180;54931;52.098;21.006;2023-03-01T15:02:37;101180.00;;;6.44
68127;BMP180;54931;52.098;21.006;2023-03-01T15:05:06;101172.80;;;6.30
68127;BMP180;54931;52.098;21.006;2023-03-01T15:07:40;101173.60;;;6.20
68127;BMP180;54931;52.098;21.006;2023-03-01T15:12:49;101169.60;;;6.00
68127;BMP180;54931;52.098;21.006;2023-03-01T15:18:05;101171.40;;;5.82
68127;BMP180;54931;52.098;21.006;2023-03-01T15:20:34;101168.20;;;5.80
68127;BMP180;54931;52.098;21.006;2023-03-01T15:23:03;101166.20;;;5.70
68127;BMP180;54931;52.098;21.006;2023-03-01T15:25:33;101166.60;;;5.60
68127;BMP180;54931;52.098;21.006;2023-03-01T15:28:02;101170.00;;;5.60
68127;BMP180;54931;52.098;21.006;2023-03-01T15:30:35;101164.20;;;5.50
68127;BMP180;54931;52.098;21.006;2023-03-01T15:36:29;101163.40;;;5.90
68127;BMP180;54931;52.098;21.006;2023-03-01T15:38:55;101158.80;;;5.80
68127;BMP180;54931;52.098;21.006;2023-03-01T15:41:37;101152.40;;;5.76
68127;BMP180;54931;52.098;21.006;2023-03-01T15:44:30;101148.40;;;5.60
68127;BMP180;54931;52.098;21.006;2023-03-01T15:47:00;101149.20;;;5.40
68127;BMP180;54931;52.098;21.006;2023-03-01T15:49:43;101148.20;;;5.20
68127;BMP180;54931;52.098;21.006;2023-03-01T15:52:29;101155.20;;;5.10
68127;BMP180;54931;52.098;21.006;2023-03-01T15:55:18;101151.80;;;4.90
68127;BMP180;54931;52.098;21.006;2023-03-01T15:57:47;101150.20;;;4.74
68127;BMP180;54931;52.098;21.006;2023-03-01T16:00:16;101147.60;;;4.60
68127;BMP180;54931;52.098;21.006;2023-03-01T16:02:45;101150.40;;;4.44